Time;durP1;ratioP1;P1;durP2;ratioP2;P2;SDS_P1;SDS_P2;PMS_P1;PMS_P2;Temp;Humidity;BMP_temperature;BMP_pressure;BME280_temperature;BME280_humidity;BME280_pressure;Samples;Min_cycle;Max_cycle;Signal;HPM_P1;HPM_P2
2023/03/11 00:01:11;;;;;;;0.40;0.40;;;23.50;36.30;;;;;;5041271;27;88441;-66
2023/03/11 00:03:39;;;;;;;0.37;0.30;;;23.50;35.70;;;;;;5038856;28;87070;-65
2023/03/11 00:06:07;;;;;;;1.50;0.40;;;23.40;35.70;;;;;;5041309;27;86928;-65
2023/03/11 00:08:35;;;;;;;1.03;0.50;;;23.30;36.30;;;;;;5041334;27;89579;-65
2023/03/11 00:11:03;;;;;;;0.30;0.30;;;23.30;35.70;;;;;;5042344;27;88871;-65
2023/03/11 00:13:32;;;;;;;0.33;0.33;;;23.20;35.70;;;;;;5041447;27;87890;-65
2023/03/11 00:16:00;;;;;;;0.27;0.27;;;23.10;35.60;;;;;;5037898;28;87092;-65
2023/03/11 00:18:30;;;;;;;0.30;0.30;;;23.00;35.60;;;;;;5040818;27;88675;-65
2023/03/11 00:20:59;;;;;;;0.30;0.30;;;23.00;35.60;;;;;;5042179;27;89497;-65
2023/03/11 00:23:27;;;;;;;0.37;0.37;;;22.90;35.60;;;;;;5041710;27;87334;-65
2023/03/11 00:25:55;;;;;;;0.50;0.50;;;22.80;35.60;;;;;;5043482;28;87002;-64
2023/03/11 00:28:25;;;;;;;0.20;0.20;;;22.80;35.60;;;;;;5042760;28;89131;-64
2023/03/11 00:30:53;;;;;;;0.30;0.30;;;22.50;35.40;;;;;;5042542;28;87696;-65
2023/03/11 00:33:21;;;;;;;0.60;0.60;;;22.50;35.50;;;;;;5042570;28;87165;-65
2023/03/11 00:35:50;;;;;;;0.30;0.30;;;22.60;35.60;;;;;;5041886;28;87357;-65
2023/03/11 00:38:18;;;;;;;0.40;0.40;;;22.60;35.70;;;;;;5042195;27;89286;-65
2023/03/11 00:40:47;;;;;;;0.50;0.50;;;22.50;35.60;;;;;;5042476;27;88621;-65
2023/03/11 00:43:15;;;;;;;0.30;0.30;;;22.50;35.70;;;;;;5041564;27;87972;-65
2023/03/11 00:45:43;;;;;;;0.40;0.40;;;22.40;35.60;;;;;;5042737;27;87234;-65
2023/03/11 00:48:11;;;;;;;2.00;0.50;;;22.40;35.60;;;;;;5042182;28;92638;-66
2023/03/11 00:50:39;;;;;;;0.37;0.37;;;22.30;35.60;;;;;;5042880;27;88578;-66
2023/03/11 00:53:10;;;;;;;0.70;0.63;;;22.30;35.70;;;;;;5042698;28;87612;-65
2023/03/11 00:55:38;;;;;;;0.20;0.20;;;22.30;35.70;;;;;;5041916;27;87044;-65
2023/03/11 00:58:06;;;;;;;1.30;0.33;;;22.20;35.70;;;;;;5042526;27;88788;-65
2023/03/11 01:00:34;;;;;;;0.83;0.33;;;22.20;35.80;;;;;;5043166;28;88937;-65
2023/03/11 01:03:02;;;;;;;0.50;0.50;;;22.20;35.80;;;;;;5042874;27;87034;-65
2023/03/11 01:05:31;;;;;;;0.50;0.50;;;22.10;35.70;;;;;;5040492;27;87136;-65
2023/03/11 01:07:59;;;;;;;2.03;0.30;;;22.10;35.80;;;;;;5039663;28;89559;-65
2023/03/11 01:10:29;;;;;;;0.70;0.70;;;22.10;35.80;;;;;;5037603;28;90290;-65
2023/03/11 01:12:57;;;;;;;0.80;0.50;;;22.00;36.40;;;;;;5039885;28;87145;-65
2023/03/11 01:15:26;;;;;;;0.50;0.27;;;22.00;35.80;;;;;;5036570;28;87138;-65
2023/03/11 01:17:54;;;;;;;0.43;0.43;;;22.00;35.80;;;;;;5036008;28;89133;-66
2023/03/11 01:20:22;;;;;;;0.20;0.20;;;21.90;35.80;;;;;;5037248;28;88855;-65
2023/03/11 01:22:50;;;;;;;0.40;0.40;;;21.90;35.80;;;;;;5040129;28;86981;-65
2023/03/11 01:25:19;;;;;;;0.50;0.50;;;21.90;36.50;;;;;;5041371;27;86182;-65
2023/03/11 01:27:48;;;;;;;0.40;0.40;;;21.80;35.80;;;;;;5041160;27;88963;-65
2023/03/11 01:30:18;;;;;;;1.30;0.40;;;21.80;35.80;;;;;;5040513;27;89030;-65
2023/03/11 01:32:46;;;;;;;0.23;0.23;;;21.80;35.90;;;;;;5040269;27;88157;-65
2023/03/11 01:35:15;;;;;;;0.40;0.40;;;21.70;35.80;;;;;;5040062;28;87106;-65
2023/03/11 01:37:43;;;;;;;0.57;0.30;;;21.70;35.80;;;;;;5037960;27;88744;-65
2023/03/11 01:40:14;;;;;;;0.30;0.30;;;21.70;35.80;;;;;;5040471;27;88475;-65
2023/03/11 01:42:42;;;;;;;0.73;0.70;;;21.70;35.90;;;;;;5040725;28;87000;-65
2023/03/11 01:45:38;;;;;;;0.70;0.60;;;21.60;35.90;;;;;;5038157;28;87027;-65
2023/03/11 01:48:06;;;;;;;0.30;0.30;;;21.60;35.90;;;;;;5040892;27;88207;-65
2023/03/11 01:50:35;;;;;;;0.30;0.30;;;21.60;35.90;;;;;;5040730;27;88910;-65
2023/03/11 01:53:04;;;;;;;0.43;0.20;;;21.50;35.90;;;;;;5039976;27;87431;-65
2023/03/11 01:55:32;;;;;;;0.30;0.30;;;21.50;36.00;;;;;;5041086;27;88855;-65
2023/03/11 01:58:00;;;;;;;1.23;0.60;;;21.40;35.90;;;;;;5039822;28;90327;-65
2023/03/11 02:00:29;;;;;;;0.47;0.47;;;21.40;35.90;;;;;;5037619;27;89935;-65
2023/03/11 02:02:58;;;;;;;0.47;0.30;;;21.40;36.00;;;;;;5041086;28;88182;-65
2023/03/11 02:05:26;;;;;;;0.40;0.40;;;21.40;36.00;;;;;;5041094;27;87226;-65
2023/03/11 02:07:54;;;;;;;0.30;0.30;;;21.40;36.00;;;;;;5041497;27;89019;-65
2023/03/11 02:10:22;;;;;;;0.90;0.40;;;21.30;36.00;;;;;;5041731;27;89089;-65
2023/03/11 02:12:50;;;;;;;0.60;0.60;;;21.30;36.00;;;;;;5042061;28;87010;-65
2023/03/11 02:15:18;;;;;;;0.40;0.40;;;21.30;36.00;;;;;;5041787;28;86255;-65
2023/03/11 02:17:47;;;;;;;0.50;0.30;;;21.30;36.00;;;;;;5041900;27;89042;-65
2023/03/11 02:20:21;;;;;;;0.37;0.37;;;21.20;36.00;;;;;;5041582;27;88780;-65
2023/03/11 02:22:49;;;;;;;0.93;0.47;;;21.20;36.00;;;;;;5041429;27;87957;-65
2023/03/11 02:25:21;;;;;;;0.50;0.50;;;21.20;36.00;;;;;;5041801;27;87001;-65
2023/03/11 02:27:51;;;;;;;2.00;0.50;;;21.20;36.00;;;;;;5041401;27;89086;-65
2023/03/11 02:30:20;;;;;;;0.53;0.53;;;21.20;36.10;;;;;;5041519;27;89028;-65
2023/03/11 02:32:48;;;;;;;0.67;0.67;;;21.10;36.00;;;;;;5041782;28;86902;-67
2023/03/11 02:35:16;;;;;;;1.80;0.90;;;21.10;36.00;;;;;;5041323;27;88514;-65
2023/03/11 02:37:45;;;;;;;0.30;0.30;;;21.10;36.10;;;;;;5041631;28;89072;-64
2023/03/11 02:40:34;;;;;;;0.73;0.60;;;21.10;36.70;;;;;;5041741;28;87075;-65
2023/03/11 02:43:03;;;;;;;0.67;0.67;;;21.00;36.10;;;;;;5032707;27;87281;-66
2023/03/11 02:45:31;;;;;;;0.50;0.50;;;21.00;36.00;;;;;;5040279;27;87094;-67
2023/03/11 02:47:59;;;;;;;0.50;0.50;;;21.00;36.10;;;;;;5040127;27;89690;-67
2023/03/11 02:50:28;;;;;;;0.30;0.30;;;21.00;36.10;;;;;;5045052;28;90140;-65
2023/03/11 02:52:56;;;;;;;0.60;0.60;;;21.00;36.10;;;;;;5044744;28;88269;-67
2023/03/11 02:55:24;;;;;;;1.20;0.57;;;21.00;36.80;;;;;;5045147;27;87015;-67
2023/03/11 02:57:52;;;;;;;1.17;0.47;;;21.00;36.10;;;;;;5045086;27;88041;-64
2023/03/11 03:00:22;;;;;;;0.53;0.40;;;20.90;36.10;;;;;;5044603;27;88947;-66
2023/03/11 03:02:51;;;;;;;0.47;0.47;;;20.90;36.10;;;;;;5045732;28;87019;-67
2023/03/11 03:05:20;;;;;;;0.40;0.40;;;20.90;36.10;;;;;;5043254;27;87202;-66
2023/03/11 03:07:48;;;;;;;0.83;0.77;;;20.90;36.20;;;;;;5044836;27;88674;-66
2023/03/11 03:10:19;;;;;;;0.40;0.40;;;20.90;36.20;;;;;;5044669;28;88889;-66
2023/03/11 03:12:47;;;;;;;0.43;0.40;;;20.80;36.10;;;;;;5044338;28;87972;-66
2023/03/11 03:15:15;;;;;;;0.97;0.30;;;20.80;36.20;;;;;;5045220;28;87065;-66
2023/03/11 03:17:45;;;;;;;1.30;0.60;;;20.80;36.10;;;;;;5044129;28;89266;-66
2023/03/11 03:20:13;;;;;;;0.83;0.70;;;20.70;36.10;;;;;;5044311;27;88750;-66
2023/03/11 03:22:42;;;;;;;1.63;0.50;;;20.70;36.10;;;;;;5044793;28;87116;-66
2023/03/11 03:25:10;;;;;;;0.27;0.27;;;20.70;36.10;;;;;;5044201;27;87132;-66
2023/03/11 03:27:38;;;;;;;0.30;0.20;;;20.70;36.20;;;;;;5044058;27;87902;-66
2023/03/11 03:30:07;;;;;;;1.67;0.77;;;20.70;36.20;;;;;;5045301;27;88087;-66
2023/03/11 03:32:35;;;;;;;0.40;0.40;;;20.60;36.10;;;;;;5044435;28;86679;-66
2023/03/11 03:35:05;;;;;;;0.53;0.53;;;20.60;36.10;;;;;;5043776;28;87207;-67
2023/03/11 03:37:33;;;;;;;0.60;0.40;;;20.60;36.10;;;;;;5035291;27;90197;-66
2023/03/11 03:40:02;;;;;;;0.50;0.50;;;20.60;36.10;;;;;;5037339;28;88524;-67
2023/03/11 03:42:30;;;;;;;0.40;0.40;;;20.60;36.10;;;;;;5043559;27;86955;-66
2023/03/11 03:44:58;;;;;;;0.50;0.50;;;20.60;36.20;;;;;;5044024;27;87014;-67
2023/03/11 03:47:26;;;;;;;1.47;0.77;;;20.50;36.10;;;;;;5043459;27;88937;-66
2023/03/11 03:49:54;;;;;;;0.57;0.40;;;20.50;36.10;;;;;;5043148;28;88843;-67
2023/03/11 03:52:23;;;;;;;0.53;0.53;;;20.50;36.20;;;;;;5043456;27;86969;-67
2023/03/11 03:54:51;;;;;;;0.30;0.30;;;20.50;36.20;;;;;;5044003;27;86167;-66
2023/03/11 03:57:19;;;;;;;0.77;0.73;;;20.50;36.20;;;;;;5043787;28;89510;-67
2023/03/11 03:59:47;;;;;;;0.50;0.40;;;20.40;36.00;;;;;;5043139;27;88894;-66
2023/03/11 04:02:15;;;;;;;2.33;0.30;;;20.50;36.20;;;;;;5042230;28;88100;-66
2023/03/11 04:04:43;;;;;;;0.60;0.60;;;20.40;36.10;;;;;;5043385;27;87068;-66
2023/03/11 04:07:11;;;;;;;0.40;0.40;;;20.40;36.10;;;;;;5043434;28;89266;-67
2023/03/11 04:09:41;;;;;;;0.50;0.40;;;20.40;36.10;;;;;;5043460;28;89107;-66
2023/03/11 04:12:10;;;;;;;0.47;0.40;;;20.40;36.10;;;;;;5043908;28;87085;-67
2023/03/11 04:14:38;;;;;;;0.57;0.37;;;20.40;36.10;;;;;;5040185;27;87109;-66
2023/03/11 04:17:06;;;;;;;0.30;0.23;;;20.30;36.10;;;;;;5038408;27;89180;-66
2023/03/11 04:19:34;;;;;;;0.50;0.50;;;20.30;36.10;;;;;;5038654;28;88718;-67
2023/03/11 04:22:02;;;;;;;0.40;0.40;;;20.30;36.10;;;;;;5038250;27;88362;-66
2023/03/11 04:24:30;;;;;;;0.57;0.57;;;20.30;36.10;;;;;;5037408;28;88204;-66
2023/03/11 04:27:00;;;;;;;0.60;0.50;;;20.30;36.10;;;;;;5041555;27;90141;-66
2023/03/11 04:29:28;;;;;;;0.50;0.50;;;20.30;36.10;;;;;;5043251;28;90237;-66
2023/03/11 04:31:55;;;;;;;0.30;0.30;;;20.30;36.10;;;;;;5043323;27;86999;-66
2023/03/11 04:34:24;;;;;;;0.57;0.57;;;20.20;36.70;;;;;;5043101;27;87069;-66
2023/03/11 04:36:52;;;;;;;0.23;0.23;;;20.20;36.10;;;;;;5042915;28;89125;-66
2023/03/11 04:39:20;;;;;;;0.60;0.43;;;20.20;36.10;;;;;;5043146;27;87994;-66
2023/03/11 04:41:48;;;;;;;0.50;0.50;;;20.20;36.10;;;;;;5043555;27;86990;-67
2023/03/11 04:44:17;;;;;;;1.13;0.50;;;20.20;36.10;;;;;;5044602;27;86296;-66
2023/03/11 04:46:45;;;;;;;0.30;0.30;;;20.20;36.10;;;;;;5042737;27;89001;-66
2023/03/11 04:49:13;;;;;;;1.33;0.57;;;20.10;36.00;;;;;;5043258;27;88590;-66
2023/03/11 04:51:41;;;;;;;0.50;0.50;;;20.10;36.00;;;;;;5042233;28;88034;-66
2023/03/11 04:54:09;;;;;;;0.40;0.40;;;20.10;36.00;;;;;;5042599;28;87317;-66
2023/03/11 04:56:37;;;;;;;0.10;0.10;;;20.10;36.10;;;;;;5042774;27;88558;-66
2023/03/11 04:59:05;;;;;;;0.40;0.40;;;20.10;36.10;;;;;;5042502;28;88785;-65
2023/03/11 05:01:35;;;;;;;0.83;0.53;;;20.00;36.00;;;;;;5042909;28;87035;-66
2023/03/11 05:04:03;;;;;;;0.90;0.60;;;20.00;36.00;;;;;;5042542;28;87024;-66
2023/03/11 05:06:31;;;;;;;0.70;0.53;;;20.00;36.00;;;;;;5042718;27;88463;-66
2023/03/11 05:08:59;;;;;;;0.90;0.60;;;20.00;36.00;;;;;;5042908;27;88689;-65
2023/03/11 05:11:27;;;;;;;0.40;0.40;;;20.00;36.00;;;;;;5041043;27;87093;-65
2023/03/11 05:13:55;;;;;;;0.50;0.50;;;20.00;36.00;;;;;;5042463;28;87058;-65
2023/03/11 05:16:22;;;;;;;0.50;0.50;;;20.00;36.00;;;;;;5042059;28;90095;-65
2023/03/11 05:18:52;;;;;;;0.30;0.30;;;20.00;36.10;;;;;;5042613;28;89847;-65
2023/03/11 05:21:20;;;;;;;0.50;0.50;;;19.90;36.00;;;;;;5043014;27;87472;-65
2023/03/11 05:23:48;;;;;;;0.57;0.57;;;19.90;36.00;;;;;;5041343;28;88794;-65
2023/03/11 05:26:16;;;;;;;0.30;0.20;;;19.90;36.60;;;;;;5042080;28;89249;-65
2023/03/11 05:28:44;;;;;;;0.20;0.20;;;20.00;36.00;;;;;;5042680;28;89080;-65
2023/03/11 05:31:12;;;;;;;0.40;0.40;;;19.90;36.00;;;;;;5042333;27;87070;-65
2023/03/11 05:33:40;;;;;;;0.40;0.40;;;19.90;36.00;;;;;;5042612;27;86464;-66
2023/03/11 05:36:10;;;;;;;0.30;0.30;;;19.90;36.00;;;;;;5042149;27;88967;-65
2023/03/11 05:38:38;;;;;;;1.17;0.50;;;19.80;36.00;;;;;;5042794;28;88333;-66
2023/03/11 05:41:06;;;;;;;0.40;0.40;;;19.80;36.00;;;;;;5041453;28;87922;-66
2023/03/11 05:43:34;;;;;;;0.50;0.50;;;19.80;36.00;;;;;;5041841;27;86915;-66
2023/03/11 05:46:02;;;;;;;0.40;0.40;;;19.80;36.00;;;;;;5041576;27;88836;-65
2023/03/11 05:48:30;;;;;;;0.33;0.33;;;19.80;36.00;;;;;;5041547;27;87385;-65
2023/03/11 05:50:59;;;;;;;0.57;0.57;;;19.80;36.00;;;;;;5041655;27;87081;-65
2023/03/11 05:53:28;;;;;;;1.50;0.60;;;19.80;36.00;;;;;;5041592;28;87092;-65
2023/03/11 05:55:57;;;;;;;0.63;0.50;;;19.70;35.90;;;;;;5041585;28;89297;-65
2023/03/11 05:58:26;;;;;;;0.20;0.20;;;19.70;36.00;;;;;;5042283;27;86264;-66
2023/03/11 06:00:54;;;;;;;0.50;0.50;;;19.70;36.00;;;;;;5042434;27;87031;-65
2023/03/11 06:03:22;;;;;;;0.40;0.40;;;19.70;36.00;;;;;;5041667;27;87278;-65
2023/03/11 06:05:51;;;;;;;0.53;0.53;;;19.70;36.00;;;;;;5041003;27;90207;-65
2023/03/11 06:08:20;;;;;;;0.40;0.40;;;19.70;36.00;;;;;;5041731;27;89919;-65
2023/03/11 06:10:50;;;;;;;1.20;0.50;;;19.60;35.90;;;;;;5041444;27;87940;-65
2023/03/11 06:13:18;;;;;;;0.50;0.50;;;19.60;35.90;;;;;;5041367;27;87056;-65
2023/03/11 06:15:45;;;;;;;0.70;0.63;;;19.60;35.90;;;;;;5041608;28;89113;-66
2023/03/11 06:18:13;;;;;;;2.20;0.60;;;19.60;35.90;;;;;;5041138;27;88538;-65
2023/03/11 06:20:41;;;;;;;0.63;0.40;;;19.60;35.90;;;;;;5041919;27;87007;-65
2023/03/11 06:23:09;;;;;;;0.57;0.57;;;19.60;36.00;;;;;;5041636;28;86349;-66
2023/03/11 06:25:37;;;;;;;0.40;0.40;;;19.60;35.90;;;;;;5040820;28;89155;-65
2023/03/11 06:28:07;;;;;;;0.20;0.20;;;19.50;35.90;;;;;;5041434;27;88829;-66
2023/03/11 06:30:34;;;;;;;0.43;0.30;;;19.50;35.90;;;;;;5040692;28;87998;-65
2023/03/11 06:33:02;;;;;;;0.47;0.47;;;19.60;36.00;;;;;;5041398;27;86824;-65
2023/03/11 06:35:30;;;;;;;0.40;0.40;;;19.50;35.90;;;;;;5040899;28;89098;-65
2023/03/11 06:37:58;;;;;;;2.10;0.87;;;19.50;35.90;;;;;;5041652;28;88797;-65
2023/03/11 06:40:27;;;;;;;0.60;0.60;;;19.50;35.90;;;;;;5041567;28;87021;-65
2023/03/11 06:42:54;;;;;;;0.53;0.50;;;19.50;35.90;;;;;;5041532;27;86892;-65
2023/03/11 06:45:24;;;;;;;0.63;0.50;;;19.50;35.90;;;;;;5040366;28;88018;-65
2023/03/11 06:47:52;;;;;;;1.70;0.60;;;19.60;35.90;;;;;;5033964;28;89178;-66
2023/03/11 06:50:22;;;;;;;0.40;0.40;;;19.70;36.00;;;;;;5041407;27;86940;-65
2023/03/11 06:52:50;;;;;;;0.60;0.60;;;19.80;36.00;;;;;;5040359;28;88843;-65
2023/03/11 06:55:20;;;;;;;0.87;0.50;;;19.90;35.90;;;;;;5040163;28;90138;-65
2023/03/11 06:57:47;;;;;;;0.30;0.30;;;20.00;35.90;;;;;;5040998;28;88109;-65
2023/03/11 07:00:16;;;;;;;0.70;0.50;;;20.10;35.80;;;;;;5040782;28;86900;-66
2023/03/11 07:02:45;;;;;;;0.40;0.40;;;20.20;35.80;;;;;;5040833;27;87155;-66
2023/03/11 07:05:13;;;;;;;0.50;0.50;;;20.30;35.80;;;;;;5040510;27;89151;-65
2023/03/11 07:07:41;;;;;;;0.40;0.40;;;20.30;35.70;;;;;;5040722;28;88930;-66
2023/03/11 07:10:10;;;;;;;0.50;0.50;;;20.40;35.80;;;;;;5040947;28;86993;-66
2023/03/11 07:12:38;;;;;;;0.57;0.53;;;20.40;35.80;;;;;;5041737;27;86290;-65
2023/03/11 07:15:08;;;;;;;0.50;0.50;;;20.40;35.70;;;;;;5041189;27;89140;-65
2023/03/11 07:17:36;;;;;;;2.40;0.83;;;20.40;35.80;;;;;;5040610;27;88878;-65
2023/03/11 07:20:06;;;;;;;0.67;0.67;;;20.40;35.80;;;;;;5039921;27;87910;-65
2023/03/11 07:22:34;;;;;;;0.77;0.47;;;20.40;35.80;;;;;;5036206;28;88250;-65
2023/03/11 07:25:02;;;;;;;0.63;0.53;;;20.30;35.70;;;;;;5040835;27;87796;-65
2023/03/11 07:27:30;;;;;;;0.70;0.70;;;20.30;35.80;;;;;;5030336;28;88837;-65
2023/03/11 07:29:58;;;;;;;0.50;0.50;;;20.30;35.80;;;;;;5040373;27;88542;-65
2023/03/11 07:32:26;;;;;;;0.50;0.50;;;20.30;35.80;;;;;;5039866;28;87318;-65
2023/03/11 07:34:54;;;;;;;0.40;0.40;;;20.20;35.80;;;;;;5042653;27;89129;-65
2023/03/11 07:37:24;;;;;;;0.40;0.40;;;20.20;35.80;;;;;;5043755;27;88842;-65
2023/03/11 07:39:52;;;;;;;1.37;0.60;;;20.20;35.90;;;;;;5044041;28;87181;-65
2023/03/11 07:42:20;;;;;;;0.40;0.40;;;20.10;35.80;;;;;;5043738;27;87046;-65
2023/03/11 07:44:50;;;;;;;0.67;0.67;;;20.10;35.90;;;;;;5043519;28;90141;-66
2023/03/11 07:47:18;;;;;;;2.13;0.53;;;20.10;35.90;;;;;;5047620;27;89810;-65
2023/03/11 07:49:46;;;;;;;0.33;0.33;;;20.00;35.80;;;;;;5043456;27;86903;-66
2023/03/11 07:52:14;;;;;;;1.77;0.47;;;20.10;35.90;;;;;;5049801;27;87000;-66
2023/03/11 07:54:46;;;;;;;0.40;0.40;;;20.00;35.80;;;;;;5053090;27;89095;-65
2023/03/11 07:57:16;;;;;;;1.10;0.50;;;20.00;35.90;;;;;;5045863;27;88978;-65
2023/03/11 07:59:43;;;;;;;1.67;0.77;;;20.00;35.90;;;;;;5053864;27;88093;-66
2023/03/11 08:02:11;;;;;;;0.60;0.60;;;20.00;35.90;;;;;;5056940;27;86362;-65
2023/03/11 08:04:40;;;;;;;0.57;0.50;;;20.00;35.90;;;;;;5050426;27;92241;-66
2023/03/11 08:07:08;;;;;;;0.47;0.47;;;20.00;35.90;;;;;;5047011;27;89235;-66
2023/03/11 08:09:36;;;;;;;0.40;0.40;;;20.00;35.90;;;;;;5043299;27;88112;-66
2023/03/11 08:12:05;;;;;;;1.33;0.77;;;20.00;35.90;;;;;;5050698;27;87193;-66
2023/03/11 08:14:33;;;;;;;0.70;0.70;;;19.90;35.90;;;;;;5054527;27;88794;-65
2023/03/11 08:17:01;;;;;;;0.30;0.30;;;19.90;35.90;;;;;;5046053;27;88636;-65
2023/03/11 08:19:29;;;;;;;0.40;0.40;;;19.90;35.90;;;;;;5050633;27;87004;-65
2023/03/11 08:21:57;;;;;;;1.63;0.47;;;19.90;35.90;;;;;;5048444;27;86902;-66
2023/03/11 08:24:25;;;;;;;0.50;0.50;;;19.90;35.90;;;;;;5043627;27;88726;-66
2023/03/11 08:26:54;;;;;;;1.10;1.03;;;19.90;35.90;;;;;;5047097;27;88020;-66
2023/03/11 08:29:23;;;;;;;0.30;0.30;;;19.90;36.00;;;;;;5043681;28;87023;-66
2023/03/11 08:31:51;;;;;;;0.30;0.30;;;19.80;35.90;;;;;;5043451;27;87099;-65
2023/03/11 08:34:20;;;;;;;0.60;0.60;;;19.80;35.90;;;;;;5043337;27;90160;-65
2023/03/11 08:36:48;;;;;;;0.60;0.60;;;19.80;35.90;;;;;;5042649;28;89755;-66
2023/03/11 08:39:16;;;;;;;0.30;0.30;;;19.80;35.90;;;;;;5045841;27;87012;-66
2023/03/11 08:41:44;;;;;;;0.63;0.57;;;19.80;35.90;;;;;;5043569;27;86775;-66
2023/03/11 08:44:12;;;;;;;0.50;0.50;;;19.80;36.00;;;;;;5043108;27;89268;-66
2023/03/11 08:46:41;;;;;;;0.60;0.60;;;19.80;36.00;;;;;;5041804;27;88555;-65
2023/03/11 08:49:09;;;;;;;1.13;0.50;;;19.80;36.00;;;;;;5043508;27;87078;-67
2023/03/11 08:51:37;;;;;;;0.50;0.50;;;19.80;36.00;;;;;;5043200;27;86324;-69
2023/03/11 08:54:05;;;;;;;0.30;0.30;;;19.80;36.10;;;;;;5043233;27;91935;-66
2023/03/11 08:56:33;;;;;;;1.23;0.67;;;19.80;36.20;;;;;;5043011;28;88904;-68
2023/03/11 08:59:01;;;;;;;0.67;0.57;;;19.90;36.40;;;;;;5042898;28;88018;-68
2023/03/11 09:01:29;;;;;;;1.10;0.70;;;19.90;36.40;;;;;;5043254;28;87809;-67
2023/03/11 09:03:59;;;;;;;0.43;0.37;;;20.00;36.60;;;;;;5043306;28;92561;-68
2023/03/11 09:06:29;;;;;;;0.60;0.60;;;20.10;36.70;;;;;;5042231;28;88090;-69
2023/03/11 09:08:57;;;;;;;1.17;0.67;;;20.20;36.70;;;;;;5043063;27;86917;-68
2023/03/11 09:11:25;;;;;;;3.93;0.63;;;20.30;36.70;;;;;;5043189;27;87034;-68
2023/03/11 09:13:53;;;;;;;0.60;0.60;;;20.50;36.70;;;;;;5043437;27;87617;-68
2023/03/11 09:16:21;;;;;;;1.07;0.60;;;20.70;36.80;;;;;;5043495;28;88831;-68
2023/03/11 09:18:49;;;;;;;1.07;0.40;;;20.90;36.80;;;;;;5043253;27;88200;-69
2023/03/11 09:21:19;;;;;;;2.13;0.60;;;21.20;36.80;;;;;;5043557;27;86960;-70
2023/03/11 09:23:47;;;;;;;0.60;0.37;;;21.40;36.70;;;;;;5042335;27;89986;-69
2023/03/11 09:26:15;;;;;;;0.40;0.40;;;21.60;36.60;;;;;;5042635;28;89928;-69
2023/03/11 09:28:47;;;;;;;1.17;0.80;;;21.90;36.70;;;;;;5042832;27;86880;-69
2023/03/11 09:31:15;;;;;;;1.03;0.50;;;22.10;36.60;;;;;;5042610;27;87082;-69
2023/03/11 09:33:43;;;;;;;0.50;0.50;;;22.30;36.60;;;;;;5042520;27;88397;-69
2023/03/11 09:36:12;;;;;;;1.33;0.60;;;22.50;36.50;;;;;;5041881;27;88751;-69
2023/03/11 09:38:42;;;;;;;0.50;0.50;;;22.60;36.40;;;;;;5042527;27;86742;-70
2023/03/11 09:41:18;;;;;;;0.50;0.50;;;22.80;36.40;;;;;;5041951;28;86323;-69
2023/03/11 09:43:51;;;;;;;0.50;0.40;;;23.00;36.40;;;;;;5041941;28;89049;-69
2023/03/11 09:46:30;;;;;;;3.57;1.00;;;23.10;36.30;;;;;;5021646;28;88932;-69
2023/03/11 09:49:00;;;;;;;0.50;0.50;;;23.20;36.30;;;;;;5028341;28;88331;-69
2023/03/11 09:51:29;;;;;;;0.30;0.30;;;23.40;36.30;;;;;;5042432;27;87076;-70
2023/03/11 09:54:02;;;;;;;0.40;0.40;;;23.50;36.20;;;;;;5042477;27;88568;-70
2023/03/11 09:56:30;;;;;;;0.83;0.70;;;23.60;36.10;;;;;;5041913;27;88337;-67
2023/03/11 09:59:01;;;;;;;0.63;0.37;;;23.70;36.10;;;;;;5039915;27;87052;-68
2023/03/11 10:01:32;;;;;;;0.50;0.50;;;23.80;36.00;;;;;;5042282;28;87040;-68
2023/03/11 10:04:03;;;;;;;0.50;0.50;;;23.80;36.00;;;;;;5041510;27;88385;-68
2023/03/11 10:06:31;;;;;;;0.40;0.40;;;23.80;36.00;;;;;;5041945;27;88867;-70
2023/03/11 10:09:03;;;;;;;0.37;0.37;;;23.80;36.00;;;;;;5042203;28;86975;-68
2023/03/11 10:11:49;;;;;;;0.30;0.30;;;23.70;36.00;;;;;;5041678;27;87095;-68
2023/03/11 10:14:26;;;;;;;0.20;0.20;;;23.80;36.00;;;;;;5041225;27;90087;-68
2023/03/11 10:16:57;;;;;;;0.50;0.50;;;23.80;35.90;;;;;;5040959;28;90041;-67
2023/03/11 10:19:30;;;;;;;0.30;0.30;;;23.90;35.90;;;;;;5040417;27;87836;-68
2023/03/11 10:22:02;;;;;;;0.50;0.40;;;24.10;36.00;;;;;;5039454;27;87101;-67
2023/03/11 10:24:39;;;;;;;0.47;0.47;;;24.20;35.90;;;;;;5041588;27;88987;-69
2023/03/11 10:27:09;;;;;;;0.97;0.37;;;24.30;35.80;;;;;;5042071;27;88159;-69
2023/03/11 10:29:42;;;;;;;0.47;0.47;;;24.40;35.70;;;;;;5042975;27;87132;-69
2023/03/11 10:32:13;;;;;;;1.53;0.57;;;24.60;35.70;;;;;;5041890;27;86210;-68
2023/03/11 10:34:43;;;;;;;0.30;0.30;;;24.60;35.60;;;;;;5041459;27;88151;-68
2023/03/11 10:37:12;;;;;;;0.37;0.37;;;24.70;35.50;;;;;;5041785;28;89008;-68
2023/03/11 10:39:41;;;;;;;0.33;0.33;;;24.90;35.50;;;;;;5041440;27;87853;-68
2023/03/11 10:42:12;;;;;;;0.83;0.60;;;24.90;35.40;;;;;;5041607;28;86903;-69
2023/03/11 10:44:40;;;;;;;0.40;0.40;;;25.00;35.30;;;;;;5041594;28;89288;-68
2023/03/11 10:47:13;;;;;;;0.40;0.40;;;25.10;35.30;;;;;;5042301;28;89880;-70
2023/03/11 10:49:41;;;;;;;0.20;0.20;;;25.20;35.30;;;;;;5041603;28;87019;-69
2023/03/11 10:52:09;;;;;;;0.20;0.20;;;25.30;35.20;;;;;;5039847;27;87163;-69
2023/03/11 10:54:38;;;;;;;0.40;0.40;;;25.30;35.20;;;;;;5040962;28;89058;-69
2023/03/11 10:57:20;;;;;;;0.20;0.20;;;25.40;35.20;;;;;;5041256;27;89598;-68
2023/03/11 10:59:49;;;;;;;0.40;0.40;;;25.40;35.20;;;;;;5040671;27;87058;-68
2023/03/11 11:02:24;;;;;;;0.33;0.33;;;25.50;35.20;;;;;;5041921;28;87033;-69
2023/03/11 11:05:04;;;;;;;0.50;0.50;;;25.60;35.20;;;;;;5040500;28;90397;-68
2023/03/11 11:07:33;;;;;;;3.03;0.60;;;25.60;35.20;;;;;;5040440;28;89831;-68
2023/03/11 11:10:15;;;;;;;0.40;0.40;;;25.60;35.20;;;;;;5043088;28;86840;-69
2023/03/11 11:12:54;;;;;;;0.33;0.33;;;25.50;35.20;;;;;;5045069;27;87017;-69
2023/03/11 11:15:24;;;;;;;0.40;0.40;;;25.50;35.30;;;;;;5044351;27;89156;-69
2023/03/11 11:17:54;;;;;;;0.23;0.23;;;25.50;35.40;;;;;;5043984;27;88910;-69
2023/03/11 11:20:23;;;;;;;0.63;0.60;;;25.40;35.30;;;;;;5044116;28;86982;-69
2023/03/11 11:22:52;;;;;;;0.57;0.40;;;25.50;35.40;;;;;;5044676;27;86257;-69
2023/03/11 11:25:29;;;;;;;0.70;0.70;;;25.60;35.40;;;;;;5044302;27;89064;-69
2023/03/11 11:27:59;;;;;;;2.03;0.57;;;25.70;35.30;;;;;;5043807;27;87937;-68
2023/03/11 11:30:28;;;;;;;0.43;0.43;;;25.70;35.20;;;;;;5044493;27;88065;-67
2023/03/11 11:32:56;;;;;;;0.30;0.30;;;25.90;35.30;;;;;;5044422;27;87047;-67
2023/03/11 11:35:24;;;;;;;0.17;0.17;;;26.00;35.20;;;;;;5044534;27;89092;-67
2023/03/11 11:37:53;;;;;;;0.37;0.37;;;26.10;35.10;;;;;;5044177;27;88764;-67
2023/03/11 11:40:26;;;;;;;0.50;0.33;;;26.30;35.10;;;;;;5045517;27;87048;-67
2023/03/11 11:42:56;;;;;;;0.97;0.60;;;26.40;35.10;;;;;;5044733;27;87016;-67
2023/03/11 11:45:34;;;;;;;1.80;0.43;;;26.50;35.10;;;;;;5044697;27;88842;-67
2023/03/11 11:48:06;;;;;;;0.53;0.53;;;26.50;35.00;;;;;;5044507;27;88707;-65
2023/03/11 11:50:36;;;;;;;1.43;1.10;;;26.50;35.10;;;;;;5044463;28;86912;-67
2023/03/11 11:53:14;;;;;;;1.17;1.00;;;26.50;35.20;;;;;;5044718;27;87071;-67
2023/03/11 11:55:44;;;;;;;2.47;1.30;;;26.50;35.40;;;;;;5043694;28;90131;-67
2023/03/11 11:58:12;;;;;;;1.10;0.80;;;26.50;35.50;;;;;;5044126;27;89847;-67
2023/03/11 12:00:47;;;;;;;0.87;0.50;;;26.50;35.50;;;;;;5043541;28;87035;-67
2023/03/11 12:03:35;;;;;;;0.40;0.40;;;26.50;35.60;;;;;;5043954;28;86836;-67
2023/03/11 12:06:06;;;;;;;0.50;0.50;;;26.50;35.60;;;;;;5043453;28;89429;-68
2023/03/11 12:08:36;;;;;;;2.57;0.80;;;26.50;35.50;;;;;;5043866;27;89180;-67
2023/03/11 12:11:05;;;;;;;0.33;0.33;;;26.70;35.50;;;;;;5043551;27;87169;-66
2023/03/11 12:13:59;;;;;;;0.30;0.30;;;26.70;35.40;;;;;;5043942;27;86348;-67
2023/03/11 12:16:33;;;;;;;0.60;0.43;;;26.80;36.10;;;;;;5035969;28;88824;-67
2023/03/11 12:19:03;;;;;;;0.33;0.33;;;26.90;35.30;;;;;;5044067;28;88936;-67
2023/03/11 12:21:41;;;;;;;0.23;0.23;;;27.10;35.50;;;;;;5042574;28;88025;-67
2023/03/11 12:24:17;;;;;;;0.57;0.40;;;27.50;35.40;;;;;;5043661;28;87057;-68
2023/03/11 12:26:46;;;;;;;1.20;0.43;;;27.20;35.10;;;;;;5029111;28;89075;-68
2023/03/11 12:29:18;;;;;;;0.30;0.30;;;27.20;35.00;;;;;;5048831;27;88074;-71
2023/03/11 12:31:48;;;;;;;1.17;0.67;;;27.30;35.10;;;;;;5046023;27;87081;-67
2023/03/11 12:34:17;;;;;;;0.30;0.30;;;27.30;35.10;;;;;;5043808;27;87040;-70
2023/03/11 12:36:45;;;;;;;0.40;0.40;;;27.20;35.10;;;;;;5043126;28;88020;-69
2023/03/11 12:39:21;;;;;;;0.47;0.47;;;27.20;35.20;;;;;;5042575;28;91843;-70
2023/03/11 12:41:49;;;;;;;0.77;0.50;;;27.10;35.30;;;;;;5043910;28;87001;-69
2023/03/11 12:44:25;;;;;;;0.50;0.33;;;27.00;35.40;;;;;;5043543;27;86675;-70
2023/03/11 12:47:26;;;;;;;0.33;0.30;;;26.90;35.40;;;;;;5042845;27;89909;-69
2023/03/11 12:49:54;;;;;;;0.40;0.40;;;26.80;35.50;;;;;;5041702;28;89803;-69
2023/03/11 12:52:25;;;;;;;0.30;0.30;;;26.70;35.60;;;;;;5043248;27;86776;-69
2023/03/11 12:55:35;;;;;;;0.60;0.60;;;26.70;35.70;;;;;;5043619;27;86958;-68
2023/03/11 12:58:29;;;;;;;0.77;0.30;;;26.50;35.70;;;;;;5022304;28;89202;-68
2023/03/11 13:01:10;;;;;;;0.53;0.50;;;26.40;35.80;;;;;;5022648;28;88987;-68